Time;durP1;ratioP1;P1;durP2;ratioP2;P2;SDS_P1;SDS_P2;PMS_P1;PMS_P2;Temp;Humidity;BMP_temperature;BMP_pressure;BME280_temperature;BME280_humidity;BME280_pressure;Samples;Min_cycle;Max_cycle;Signal;HPM_P1;HPM_P2
2023/12/21 00:02:05;;;;;;;;;;;20.20;99.90;;;;;;4970026;28;19948;-72
2023/12/21 00:04:33;;;;;;;;;;;20.20;99.90;;;;;;4970464;28;19914;-72
2023/12/21 00:07:00;;;;;;;;;;;20.20;99.90;;;;;;4970097;28;20008;-73
2023/12/21 00:09:27;;;;;;;;;;;20.20;99.90;;;;;;4961873;28;19922;-71
2023/12/21 00:11:54;;;;;;;;;;;20.30;99.90;;;;;;4959885;28;19957;-72
2023/12/21 00:14:20;;;;;;;;;;;20.40;99.90;;;;;;4964239;28;19918;-73
2023/12/21 00:16:47;;;;;;;;;;;20.40;99.90;;;;;;4963036;28;20001;-74
2023/12/21 00:19:13;;;;;;;;;;;20.60;99.90;;;;;;4963203;28;19918;-74
2023/12/21 00:21:40;;;;;;;;;;;20.60;99.90;;;;;;4963592;28;19925;-73
2023/12/21 00:24:07;;;;;;;;;;;20.60;99.90;;;;;;4963426;28;19914;-73
2023/12/21 00:26:33;;;;;;;;;;;20.70;99.90;;;;;;4961320;28;19911;-74
2023/12/21 00:29:00;;;;;;;;;;;20.60;99.90;;;;;;4962114;28;20010;-72
2023/12/21 00:31:27;;;;;;;;;;;20.50;99.90;;;;;;4960322;28;20009;-75
2023/12/21 00:33:53;;;;;;;;;;;20.60;99.90;;;;;;4960200;28;19922;-73
2023/12/21 00:36:20;;;;;;;;;;;20.60;99.90;;;;;;4963498;28;19914;-72
2023/12/21 00:38:47;;;;;;;;;;;20.40;99.90;;;;;;4961404;28;19914;-72
2023/12/21 00:41:14;;;;;;;;;;;20.40;99.90;;;;;;4963778;28;20371;-73
2023/12/21 00:43:40;;;;;;;;;;;20.50;99.90;;;;;;4960600;28;19930;-73
2023/12/21 00:46:07;;;;;;;;;;;20.60;99.90;;;;;;4970898;28;19918;-75
2023/12/21 00:48:33;;;;;;;;;;;20.60;99.90;;;;;;4965124;28;19918;-72
2023/12/21 00:51:00;;;;;;;;;;;20.70;99.90;;;;;;4961104;28;20356;-73
2023/12/21 00:53:27;;;;;;;;;;;20.90;99.90;;;;;;4965396;28;19964;-72
2023/12/21 00:55:53;;;;;;;;;;;21.10;99.90;;;;;;4966216;28;19925;-74
2023/12/21 00:58:20;;;;;;;;;;;21.20;99.90;;;;;;4969949;28;20005;-75
2023/12/21 01:00:46;;;;;;;;;;;21.30;99.90;;;;;;4970248;28;19914;-72
2023/12/21 01:03:13;;;;;;;;;;;21.30;99.90;;;;;;4969999;28;19922;-73
2023/12/21 01:05:40;;;;;;;;;;;21.20;99.90;;;;;;4970645;28;20388;-73
2023/12/21 01:08:07;;;;;;;;;;;21.20;99.90;;;;;;4966383;28;19918;-73
2023/12/21 01:10:38;;;;;;;;;;;21.30;99.90;;;;;;4984103;28;20314;-71
2023/12/21 01:13:06;;;;;;;;;;;21.20;99.90;;;;;;4978977;28;20067;-71
2023/12/21 01:15:32;;;;;;;;;;;21.30;99.90;;;;;;4965025;28;19919;-73
2023/12/21 01:17:59;;;;;;;;;;;21.40;99.90;;;;;;4969354;28;19911;-70
2023/12/21 01:20:26;;;;;;;;;;;21.50;99.90;;;;;;4964912;28;19995;-73
2023/12/21 01:22:52;;;;;;;;;;;21.70;99.90;;;;;;4980914;28;19964;-73
2023/12/21 01:25:19;;;;;;;;;;;21.80;99.90;;;;;;4966129;28;19949;-71
2023/12/21 01:27:45;;;;;;;;;;;21.90;99.90;;;;;;4963771;28;20419;-73
2023/12/21 01:30:12;;;;;;;;;;;21.80;99.90;;;;;;4966606;28;19999;-73
2023/12/21 01:32:39;;;;;;;;;;;21.70;99.90;;;;;;4972424;28;19972;-73
2023/12/21 01:35:05;;;;;;;;;;;21.70;99.90;;;;;;4956105;28;19911;-72
2023/12/21 01:37:33;;;;;;;;;;;21.70;99.90;;;;;;4954351;28;20275;-76
2023/12/21 01:40:00;;;;;;;;;;;21.80;99.90;;;;;;4954676;28;19933;-75
2023/12/21 01:42:26;;;;;;;;;;;21.80;99.90;;;;;;4954835;28;20020;-72
2023/12/21 01:44:54;;;;;;;;;;;21.70;99.90;;;;;;4954504;28;19956;-74
2023/12/21 01:47:21;;;;;;;;;;;21.60;99.90;;;;;;4954023;28;19917;-75
2023/12/21 01:49:48;;;;;;;;;;;21.60;99.90;;;;;;4954331;28;19918;-73
2023/12/21 01:52:15;;;;;;;;;;;21.50;99.90;;;;;;4954094;28;19915;-74
2023/12/21 01:54:42;;;;;;;;;;;21.30;99.90;;;;;;4954095;28;20004;-76
2023/12/21 01:57:08;;;;;;;;;;;21.20;99.90;;;;;;4954300;28;19911;-72
2023/12/21 01:59:35;;;;;;;;;;;21.20;99.90;;;;;;4954308;29;19911;-73
2023/12/21 02:02:02;;;;;;;;;;;21.10;99.90;;;;;;4963865;28;19914;-72
2023/12/21 02:04:28;;;;;;;;;;;21.00;99.90;;;;;;4965974;28;19910;-73
2023/12/21 02:06:56;;;;;;;;;;;21.10;99.90;;;;;;4967497;28;19910;-74
2023/12/21 02:09:22;;;;;;;;;;;21.00;99.90;;;;;;4960874;28;19923;-74
2023/12/21 02:11:49;;;;;;;;;;;21.10;99.90;;;;;;4965168;28;19929;-73
2023/12/21 02:14:15;;;;;;;;;;;21.10;99.90;;;;;;4962799;28;19921;-71
2023/12/21 02:16:57;;;;;;;;;;;21.30;99.90;;;;;;4963312;28;19914;-74
2023/12/21 02:19:23;;;;;;;;;;;21.40;99.90;;;;;;4963095;28;20374;-77
2023/12/21 02:21:51;;;;;;;;;;;21.50;99.90;;;;;;4962994;28;20371;-75
2023/12/21 02:24:18;;;;;;;;;;;21.50;99.90;;;;;;4965116;28;20291;-72
2023/12/21 02:26:44;;;;;;;;;;;21.60;99.90;;;;;;4990566;28;20003;-73
2023/12/21 02:29:11;;;;;;;;;;;21.60;99.90;;;;;;5071834;28;20404;-73
2023/12/21 02:31:38;;;;;;;;;;;21.70;99.90;;;;;;4962263;28;19914;-72
2023/12/21 02:34:09;;;;;;;;;;;21.80;99.90;;;;;;4971943;28;19914;-71
2023/12/21 02:36:35;;;;;;;;;;;22.20;99.90;;;;;;4970096;28;19918;-77
2023/12/21 02:39:02;;;;;;;;;;;22.70;99.90;;;;;;4971579;28;19910;-78
2023/12/21 02:41:29;;;;;;;;;;;23.30;99.90;;;;;;4972071;28;19942;-77
2023/12/21 02:43:55;;;;;;;;;;;23.70;99.90;;;;;;4969910;28;20027;-75
2023/12/21 02:46:24;;;;;;;;;;;23.90;99.90;;;;;;4971566;28;19921;-72
2023/12/21 02:48:51;;;;;;;;;;;24.10;99.90;;;;;;4964681;28;19957;-73
2023/12/21 02:51:18;;;;;;;;;;;24.60;99.90;;;;;;4955945;28;20001;-73
2023/12/21 02:53:45;;;;;;;;;;;25.00;99.90;;;;;;4971844;28;19925;-73
2023/12/21 02:56:11;;;;;;;;;;;25.40;99.90;;;;;;4971869;28;19989;-76
2023/12/21 02:58:38;;;;;;;;;;;25.40;99.90;;;;;;4971519;28;19910;-73
2023/12/21 03:01:04;;;;;;;;;;;25.40;99.90;;;;;;4971843;28;19911;-73
2023/12/21 03:03:31;;;;;;;;;;;25.70;99.90;;;;;;4972038;28;19956;-78
2023/12/21 03:05:58;;;;;;;;;;;25.90;99.90;;;;;;4972545;28;19955;-73
2023/12/21 03:08:24;;;;;;;;;;;25.90;99.90;;;;;;4971631;28;19918;-76
2023/12/21 03:10:51;;;;;;;;;;;25.50;99.90;;;;;;4972509;28;19980;-71
2023/12/21 03:13:17;;;;;;;;;;;25.10;99.90;;;;;;4977424;28;19947;-72
2023/12/21 03:15:44;;;;;;;;;;;24.70;99.90;;;;;;4971878;28;19914;-77
2023/12/21 03:18:11;;;;;;;;;;;24.50;99.90;;;;;;4973592;28;20355;-72
2023/12/21 03:20:38;;;;;;;;;;;24.30;99.90;;;;;;4971503;28;19911;-71
2023/12/21 03:23:05;;;;;;;;;;;24.20;99.90;;;;;;4970859;28;20023;-74
2023/12/21 03:25:31;;;;;;;;;;;24.20;99.90;;;;;;4969994;28;19960;-73
2023/12/21 03:27:59;;;;;;;;;;;24.20;99.90;;;;;;4958414;28;19914;-72
2023/12/21 03:30:26;;;;;;;;;;;24.10;99.90;;;;;;4965617;28;20001;-72
2023/12/21 03:32:52;;;;;;;;;;;24.00;99.90;;;;;;4970720;28;19922;-73
2023/12/21 03:35:19;;;;;;;;;;;24.00;99.90;;;;;;4971409;28;20450;-70
2023/12/21 03:37:46;;;;;;;;;;;24.00;99.90;;;;;;4970906;28;19918;-71
2023/12/21 03:40:13;;;;;;;;;;;24.00;99.90;;;;;;4969861;28;19914;-75
2023/12/21 03:42:39;;;;;;;;;;;24.20;99.90;;;;;;4970903;28;20287;-73
2023/12/21 03:45:06;;;;;;;;;;;24.30;99.90;;;;;;4971633;28;20270;-72
2023/12/21 03:47:33;;;;;;;;;;;24.60;99.90;;;;;;4979623;28;20489;-72
2023/12/21 03:49:59;;;;;;;;;;;25.10;99.90;;;;;;4990531;28;19956;-72
2023/12/21 03:52:26;;;;;;;;;;;26.30;99.90;;;;;;4986391;28;19926;-76
2023/12/21 03:54:53;;;;;;;;;;;26.80;98.20;;;;;;4970613;28;19917;-76
2023/12/21 03:57:19;;;;;;;;;;;26.70;97.50;;;;;;4970839;28;19914;-76
2023/12/21 03:59:46;;;;;;;;;;;26.60;97.90;;;;;;4970757;28;20413;-77
2023/12/21 04:02:12;;;;;;;;;;;26.10;97.50;;;;;;4970693;28;19914;-77
2023/12/21 04:04:39;;;;;;;;;;;25.70;98.30;;;;;;4971094;28;19956;-72
2023/12/21 04:07:06;;;;;;;;;;;25.20;98.50;;;;;;4983301;28;20371;-83
2023/12/21 04:09:32;;;;;;;;;;;24.80;99.50;;;;;;4989698;28;19908;-78
2023/12/21 04:11:59;;;;;;;;;;;24.30;99.90;;;;;;4970759;28;20294;-79
2023/12/21 04:14:26;;;;;;;;;;;23.90;99.90;;;;;;4971045;28;19915;-76
2023/12/21 04:16:52;;;;;;;;;;;23.70;99.90;;;;;;4970362;28;19918;-71
2023/12/21 04:19:19;;;;;;;;;;;23.50;99.90;;;;;;4962174;28;19922;-73
2023/12/21 04:21:45;;;;;;;;;;;23.50;99.90;;;;;;4962832;28;20012;-73
2023/12/21 04:24:12;;;;;;;;;;;23.70;99.90;;;;;;4965062;28;20394;-76
2023/12/21 04:26:39;;;;;;;;;;;23.80;99.90;;;;;;4967703;28;19929;-72
2023/12/21 04:29:06;;;;;;;;;;;24.00;99.90;;;;;;4999913;28;19937;-75
2023/12/21 04:31:32;;;;;;;;;;;24.00;99.90;;;;;;4976039;28;19925;-73
2023/12/21 04:33:59;;;;;;;;;;;23.70;99.90;;;;;;4989481;28;19967;-75
2023/12/21 04:36:27;;;;;;;;;;;23.40;99.90;;;;;;4964149;28;20000;-73
2023/12/21 04:38:55;;;;;;;;;;;23.10;99.90;;;;;;4968343;28;19918;-77
2023/12/21 04:41:22;;;;;;;;;;;22.90;99.90;;;;;;4969742;28;19917;-74
2023/12/21 04:43:48;;;;;;;;;;;22.90;99.90;;;;;;4969319;28;19917;-73
2023/12/21 04:46:15;;;;;;;;;;;23.00;99.90;;;;;;4968956;28;19919;-73
2023/12/21 04:48:42;;;;;;;;;;;23.20;99.90;;;;;;4969468;28;20432;-76
2023/12/21 04:51:14;;;;;;;;;;;23.50;99.90;;;;;;4967033;28;20007;-73
2023/12/21 04:53:40;;;;;;;;;;;23.90;99.90;;;;;;4965671;28;19928;-74
2023/12/21 04:56:07;;;;;;;;;;;24.70;99.90;;;;;;4971389;28;20481;-80
2023/12/21 04:58:33;;;;;;;;;;;25.60;99.80;;;;;;4970059;28;19915;-73
2023/12/21 05:01:00;;;;;;;;;;;26.70;97.60;;;;;;4968910;28;19933;-76
2023/12/21 05:03:27;;;;;;;;;;;27.20;96.40;;;;;;4969010;28;19914;-72
2023/12/21 05:05:55;;;;;;;;;;;27.80;95.90;;;;;;4969129;28;20192;-73
2023/12/21 05:08:21;;;;;;;;;;;27.60;95.50;;;;;;4971497;28;20397;-72
2023/12/21 05:10:48;;;;;;;;;;;26.90;95.70;;;;;;4972209;28;19910;-71
2023/12/21 05:13:15;;;;;;;;;;;26.40;96.50;;;;;;4974492;28;19922;-74
2023/12/21 05:15:41;;;;;;;;;;;26.10;96.80;;;;;;4971155;28;19953;-73
2023/12/21 05:18:08;;;;;;;;;;;26.00;97.70;;;;;;4972730;28;19921;-71
2023/12/21 05:20:34;;;;;;;;;;;25.90;97.30;;;;;;4969325;28;19918;-72
2023/12/21 05:23:01;;;;;;;;;;;26.00;97.30;;;;;;5018047;28;19922;-74
2023/12/21 05:25:28;;;;;;;;;;;26.00;97.20;;;;;;4966203;28;19960;-78
2023/12/21 05:27:54;;;;;;;;;;;25.90;97.00;;;;;;4963936;28;20379;-77
2023/12/21 05:30:21;;;;;;;;;;;25.90;97.50;;;;;;4985088;28;19921;-76
2023/12/21 05:32:48;;;;;;;;;;;25.80;97.40;;;;;;4971927;28;19918;-73
2023/12/21 05:35:14;;;;;;;;;;;25.70;97.10;;;;;;4972693;28;19910;-72
2023/12/21 05:37:41;;;;;;;;;;;25.60;96.90;;;;;;4967276;28;19914;-78
2023/12/21 05:40:09;;;;;;;;;;;25.30;96.70;;;;;;4963864;28;20435;-78
2023/12/21 05:42:36;;;;;;;;;;;25.00;96.90;;;;;;4964061;28;20286;-76
2023/12/21 05:45:03;;;;;;;;;;;24.60;97.50;;;;;;4966101;28;19914;-73
2023/12/21 05:47:31;;;;;;;;;;;24.30;98.20;;;;;;4971098;28;19910;-70
2023/12/21 05:49:58;;;;;;;;;;;24.10;98.70;;;;;;4966525;28;19936;-71
2023/12/21 05:52:25;;;;;;;;;;;23.90;99.20;;;;;;5040274;28;19916;-72
2023/12/21 05:54:52;;;;;;;;;;;23.70;99.30;;;;;;5073716;28;20276;-73
2023/12/21 05:57:18;;;;;;;;;;;23.40;99.80;;;;;;5074192;28;19908;-72
2023/12/21 05:59:45;;;;;;;;;;;23.30;99.90;;;;;;5052991;28;20005;-71
2023/12/21 06:02:13;;;;;;;;;;;23.20;99.90;;;;;;4969924;28;20388;-79
2023/12/21 06:04:41;;;;;;;;;;;23.10;99.90;;;;;;4972948;28;19911;-79
2023/12/21 06:07:08;;;;;;;;;;;23.00;99.90;;;;;;4979969;28;19919;-69
2023/12/21 06:09:34;;;;;;;;;;;22.90;99.90;;;;;;4967266;28;19976;-71
2023/12/21 06:12:01;;;;;;;;;;;22.80;99.90;;;;;;4963733;28;19922;-69
2023/12/21 06:14:28;;;;;;;;;;;22.70;99.90;;;;;;4963817;28;19988;-70
2023/12/21 06:16:55;;;;;;;;;;;22.70;99.90;;;;;;4962275;28;20383;-70
2023/12/21 06:19:22;;;;;;;;;;;22.70;99.90;;;;;;4962970;28;19964;-70
2023/12/21 06:21:48;;;;;;;;;;;22.60;99.90;;;;;;4961748;28;20359;-69
2023/12/21 06:24:15;;;;;;;;;;;22.60;99.90;;;;;;4961575;28;19929;-72
2023/12/21 06:26:42;;;;;;;;;;;22.60;99.90;;;;;;4974093;28;19937;-70
2023/12/21 06:29:09;;;;;;;;;;;22.50;99.90;;;;;;4962525;28;20268;-70
2023/12/21 06:31:36;;;;;;;;;;;22.50;99.90;;;;;;4961324;28;20351;-69
2023/12/21 06:34:03;;;;;;;;;;;22.50;99.90;;;;;;4972438;28;19929;-71
2023/12/21 06:36:30;;;;;;;;;;;22.60;99.90;;;;;;4960288;28;19914;-70
2023/12/21 06:38:56;;;;;;;;;;;23.00;99.90;;;;;;4962582;28;19918;-70
2023/12/21 06:41:23;;;;;;;;;;;23.50;99.90;;;;;;4969075;28;19914;-67
2023/12/21 06:43:50;;;;;;;;;;;23.90;99.90;;;;;;4971287;28;19938;-69
2023/12/21 06:46:17;;;;;;;;;;;24.20;99.80;;;;;;4967450;28;19922;-68
2023/12/21 06:48:43;;;;;;;;;;;24.40;99.80;;;;;;4961092;28;19918;-70
2023/12/21 06:51:12;;;;;;;;;;;24.40;99.50;;;;;;4962744;28;19917;-69
2023/12/21 06:53:39;;;;;;;;;;;24.10;99.90;;;;;;4966147;28;19922;-68
2023/12/21 06:56:07;;;;;;;;;;;24.00;99.90;;;;;;4962850;28;19911;-72
2023/12/21 06:58:33;;;;;;;;;;;24.00;99.90;;;;;;4973863;28;19940;-70
2023/12/21 07:01:00;;;;;;;;;;;24.00;99.90;;;;;;4962853;28;19914;-69
2023/12/21 07:03:27;;;;;;;;;;;24.00;99.90;;;;;;4963350;28;19921;-68
2023/12/21 07:05:53;;;;;;;;;;;24.00;99.90;;;;;;4965108;28;19934;-71
2023/12/21 07:08:22;;;;;;;;;;;24.10;99.90;;;;;;4961481;28;19917;-72
2023/12/21 07:10:49;;;;;;;;;;;24.20;99.90;;;;;;4962580;28;19911;-68
2023/12/21 07:13:15;;;;;;;;;;;24.30;99.90;;;;;;4962871;28;19975;-70
2023/12/21 07:15:42;;;;;;;;;;;24.40;99.90;;;;;;4969700;28;19922;-68
2023/12/21 07:18:09;;;;;;;;;;;24.30;99.90;;;;;;4971290;28;19910;-70
2023/12/21 07:20:36;;;;;;;;;;;24.10;99.90;;;;;;4961046;28;19914;-70
2023/12/21 07:23:03;;;;;;;;;;;23.90;99.90;;;;;;4968984;28;19933;-69
2023/12/21 07:25:30;;;;;;;;;;;23.80;99.90;;;;;;4964132;28;19960;-72
2023/12/21 07:27:56;;;;;;;;;;;23.60;99.90;;;;;;4951021;28;19915;-70
2023/12/21 07:30:23;;;;;;;;;;;23.50;99.90;;;;;;4962610;28;20367;-70
2023/12/21 07:32:50;;;;;;;;;;;23.30;99.90;;;;;;4970692;28;19925;-68
2023/12/21 07:35:16;;;;;;;;;;;23.30;99.90;;;;;;4963889;28;19918;-70
2023/12/21 07:37:43;;;;;;;;;;;23.30;99.90;;;;;;4968841;28;19918;-75
2023/12/21 07:40:10;;;;;;;;;;;23.20;99.90;;;;;;4969991;28;19914;-69
2023/12/21 07:42:38;;;;;;;;;;;23.10;99.90;;;;;;4960245;28;19940;-69
2023/12/21 07:45:05;;;;;;;;;;;23.00;99.90;;;;;;4965758;28;19918;-71
2023/12/21 07:47:31;;;;;;;;;;;22.80;99.90;;;;;;4961047;28;20356;-70
2023/12/21 07:49:58;;;;;;;;;;;22.70;99.90;;;;;;4953583;28;20358;-70
2023/12/21 07:52:25;;;;;;;;;;;22.50;99.90;;;;;;4958893;28;19915;-69
2023/12/21 07:54:52;;;;;;;;;;;22.20;99.90;;;;;;4972783;28;19922;-70
2023/12/21 07:57:18;;;;;;;;;;;22.30;99.90;;;;;;4959809;28;20031;-69
2023/12/21 07:59:45;;;;;;;;;;;22.20;99.90;;;;;;4953477;28;20056;-69
2023/12/21 08:02:12;;;;;;;;;;;22.10;99.90;;;;;;4962541;28;19914;-69
2023/12/21 08:04:38;;;;;;;;;;;21.90;99.90;;;;;;4973945;28;19910;-71
2023/12/21 08:07:05;;;;;;;;;;;21.90;99.90;;;;;;4951250;28;20036;-70
2023/12/21 08:09:32;;;;;;;;;;;21.80;99.90;;;;;;4960592;28;19914;-71
2023/12/21 08:11:58;;;;;;;;;;;21.80;99.90;;;;;;4954158;28;19914;-69
2023/12/21 08:14:28;;;;;;;;;;;21.70;99.90;;;;;;4972149;28;19918;-72
2023/12/21 08:16:54;;;;;;;;;;;21.60;99.90;;;;;;4956431;28;20729;-71
2023/12/21 08:19:21;;;;;;;;;;;21.70;99.90;;;;;;4963817;28;19965;-72
2023/12/21 08:21:49;;;;;;;;;;;21.60;99.90;;;;;;4831596;28;3752625;-70
2023/12/21 08:24:16;;;;;;;;;;;21.50;99.90;;;;;;4965308;28;19914;-71
2023/12/21 08:26:43;;;;;;;;;;;21.40;99.90;;;;;;4964612;28;19917;-72
2023/12/21 08:29:09;;;;;;;;;;;21.30;99.90;;;;;;4960441;28;20367;-69
2023/12/21 08:31:36;;;;;;;;;;;21.20;99.90;;;;;;4963957;28;19926;-69
2023/12/21 08:34:03;;;;;;;;;;;21.10;99.90;;;;;;4976122;28;19933;-70
2023/12/21 08:36:29;;;;;;;;;;;21.00;99.90;;;;;;4977491;28;20274;-69
2023/12/21 08:38:57;;;;;;;;;;;21.00;99.90;;;;;;4955479;28;20387;-70
2023/12/21 08:41:25;;;;;;;;;;;20.90;99.90;;;;;;4963308;28;19914;-68
2023/12/21 08:43:51;;;;;;;;;;;21.00;99.90;;;;;;4975438;28;19914;-69
2023/12/21 08:46:19;;;;;;;;;;;20.90;99.90;;;;;;4956041;28;19914;-70
2023/12/21 08:48:45;;;;;;;;;;;20.90;99.90;;;;;;4965363;28;19922;-70
2023/12/21 08:51:14;;;;;;;;;;;20.90;99.90;;;;;;4969146;28;19968;-70
2023/12/21 08:53:40;;;;;;;;;;;20.90;99.90;;;;;;4969904;28;19969;-70
2023/12/21 08:56:07;;;;;;;;;;;20.90;99.90;;;;;;4959815;28;19922;-68
2023/12/21 08:58:35;;;;;;;;;;;20.90;99.90;;;;;;4967420;28;19971;-70
2023/12/21 09:01:02;;;;;;;;;;;21.00;99.90;;;;;;4964603;28;20326;-69
2023/12/21 09:03:29;;;;;;;;;;;21.00;99.90;;;;;;4960112;28;20393;-69
2023/12/21 09:05:56;;;;;;;;;;;20.90;99.90;;;;;;4961958;28;20009;-71
2023/12/21 09:08:23;;;;;;;;;;;20.90;99.90;;;;;;4958882;28;19973;-69
2023/12/21 09:10:49;;;;;;;;;;;20.90;99.90;;;;;;4963121;28;19968;-72
2023/12/21 09:13:16;;;;;;;;;;;20.90;99.90;;;;;;4962457;28;19922;-71
2023/12/21 09:15:42;;;;;;;;;;;20.90;99.90;;;;;;4971314;28;19921;-70
2023/12/21 09:18:09;;;;;;;;;;;20.90;99.90;;;;;;4960096;28;19910;-71
2023/12/21 09:20:36;;;;;;;;;;;20.90;99.90;;;;;;4965699;28;20325;-70
2023/12/21 09:23:02;;;;;;;;;;;20.90;99.90;;;;;;4962195;28;19922;-70
2023/12/21 09:25:29;;;;;;;;;;;20.80;99.90;;;;;;4961718;28;20365;-70
2023/12/21 09:28:25;;;;;;;;;;;20.80;99.90;;;;;;4965893;28;19922;-70
2023/12/21 09:31:08;;;;;;;;;;;20.80;99.90;;;;;;5016141;28;20318;-70
2023/12/21 09:33:41;;;;;;;;;;;20.90;99.90;;;;;;4933784;28;19929;-70
2023/12/21 09:36:36;;;;;;;;;;;20.80;99.90;;;;;;4976296;28;19937;-69
2023/12/21 09:39:07;;;;;;;;;;;20.80;99.90;;;;;;4955339;28;20363;-70
2023/12/21 09:41:35;;;;;;;;;;;20.70;99.90;;;;;;4960700;28;19918;-74
2023/12/21 09:44:02;;;;;;;;;;;20.70;99.90;;;;;;4960968;28;19918;-73
2023/12/21 09:46:34;;;;;;;;;;;20.60;99.90;;;;;;4959618;28;19914;-72
2023/12/21 09:49:01;;;;;;;;;;;20.60;99.90;;;;;;4961129;28;20280;-70
2023/12/21 09:51:28;;;;;;;;;;;20.60;99.90;;;;;;4965991;28;19957;-71
2023/12/21 09:53:54;;;;;;;;;;;20.50;99.90;;;;;;4961328;28;20264;-70
2023/12/21 09:56:22;;;;;;;;;;;20.50;99.90;;;;;;4966061;28;19922;-71
2023/12/21 09:58:49;;;;;;;;;;;20.30;99.90;;;;;;4963444;28;19914;-69
2023/12/21 10:01:17;;;;;;;;;;;20.40;99.90;;;;;;4967183;28;19942;-68
2023/12/21 10:03:44;;;;;;;;;;;20.30;99.90;;;;;;4960535;28;20005;-69
2023/12/21 10:06:12;;;;;;;;;;;20.30;99.90;;;;;;4963424;28;20443;-69
2023/12/21 10:08:39;;;;;;;;;;;20.30;99.90;;;;;;4973455;28;19980;-69
2023/12/21 10:11:08;;;;;;;;;;;20.30;99.90;;;;;;4966621;28;19914;-70
2023/12/21 10:13:37;;;;;;;;;;;20.20;99.90;;;;;;4972140;28;20340;-72
2023/12/21 10:16:03;;;;;;;;;;;20.20;99.90;;;;;;4964341;28;20333;-69
2023/12/21 10:18:30;;;;;;;;;;;20.10;99.90;;;;;;4963747;28;19967;-68
2023/12/21 10:20:57;;;;;;;;;;;20.10;99.90;;;;;;4969473;28;19914;-69
2023/12/21 10:23:27;;;;;;;;;;;20.10;99.90;;;;;;4963612;28;19926;-69
2023/12/21 10:25:58;;;;;;;;;;;20.20;99.90;;;;;;4961919;28;19914;-70
2023/12/21 10:28:25;;;;;;;;;;;20.20;99.90;;;;;;4972663;28;19923;-68
2023/12/21 10:30:55;;;;;;;;;;;20.20;99.90;;;;;;4963285;28;19910;-68
2023/12/21 10:33:22;;;;;;;;;;;20.30;99.90;;;;;;4965446;28;20477;-69
2023/12/21 10:35:51;;;;;;;;;;;20.30;99.90;;;;;;4960337;28;19914;-68
2023/12/21 10:38:18;;;;;;;;;;;20.30;99.90;;;;;;4964296;28;19918;-69
2023/12/21 10:40:49;;;;;;;;;;;20.30;99.90;;;;;;4973419;28;19915;-70
2023/12/21 10:43:16;;;;;;;;;;;20.30;99.90;;;;;;4956941;28;19910;-69
2023/12/21 10:45:46;;;;;;;;;;;20.30;99.90;;;;;;4964583;28;19911;-70
2023/12/21 10:48:15;;;;;;;;;;;20.30;99.90;;;;;;4974770;28;20013;-69
2023/12/21 10:50:45;;;;;;;;;;;20.40;99.90;;;;;;4966817;28;19918;-69
2023/12/21 10:53:13;;;;;;;;;;;20.30;99.90;;;;;;4960382;28;19968;-69
2023/12/21 10:55:43;;;;;;;;;;;20.40;99.90;;;;;;4972531;28;20006;-69
2023/12/21 10:58:10;;;;;;;;;;;20.40;99.90;;;;;;4972664;28;19932;-69
2023/12/21 11:00:38;;;;;;;;;;;20.40;99.90;;;;;;4972591;28;19973;-68
2023/12/21 11:03:07;;;;;;;;;;;20.40;99.90;;;;;;4973482;28;20431;-72
2023/12/21 11:05:34;;;;;;;;;;;20.30;99.90;;;;;;4971769;28;20281;-72
2023/12/21 11:08:01;;;;;;;;;;;20.30;99.90;;;;;;4970676;28;19914;-70
2023/12/21 11:10:28;;;;;;;;;;;20.20;99.90;;;;;;4971140;28;19976;-68
2023/12/21 11:12:55;;;;;;;;;;;20.10;99.90;;;;;;4972636;28;19937;-72
2023/12/21 11:15:21;;;;;;;;;;;20.10;99.90;;;;;;4972366;28;19915;-75
2023/12/21 11:17:54;;;;;;;;;;;20.10;99.90;;;;;;4970979;28;20287;-74
2023/12/21 11:20:31;;;;;;;;;;;20.10;99.90;;;;;;4972597;28;19918;-70
2023/12/21 11:23:03;;;;;;;;;;;20.00;99.90;;;;;;4972883;28;19922;-75
2023/12/21 11:25:30;;;;;;;;;;;20.00;99.90;;;;;;4972752;28;20005;-74
2023/12/21 11:27:58;;;;;;;;;;;20.00;99.90;;;;;;4972390;28;19910;-73
2023/12/21 11:30:27;;;;;;;;;;;20.00;99.90;;;;;;4971499;28;19929;-69
2023/12/21 11:33:03;;;;;;;;;;;20.00;99.90;;;;;;4971996;28;19976;-71
2023/12/21 11:35:31;;;;;;;;;;;20.10;99.90;;;;;;4972012;28;19910;-69
2023/12/21 11:37:59;;;;;;;;;;;20.10;99.90;;;;;;4971841;28;20367;-69
2023/12/21 11:40:26;;;;;;;;;;;20.20;99.90;;;;;;4971862;28;20013;-71
2023/12/21 11:42:56;;;;;;;;;;;20.10;99.90;;;;;;4971947;28;19914;-70
2023/12/21 11:45:27;;;;;;;;;;;20.10;99.90;;;;;;4972023;28;19917;-71
2023/12/21 11:47:54;;;;;;;;;;;20.10;99.90;;;;;;4971951;28;20377;-74
2023/12/21 11:50:21;;;;;;;;;;;20.10;99.90;;;;;;4971885;28;20287;-72
2023/12/21 11:52:52;;;;;;;;;;;20.20;99.90;;;;;;4955735;28;19919;-72
2023/12/21 11:55:28;;;;;;;;;;;20.20;99.90;;;;;;4971398;28;19914;-70
2023/12/21 11:58:08;;;;;;;;;;;20.20;99.90;;;;;;4971595;28;19945;-70
2023/12/21 12:00:43;;;;;;;;;;;20.20;99.90;;;;;;4971674;28;20044;-69
2023/12/21 12:03:11;;;;;;;;;;;20.20;99.90;;;;;;4971700;28;19917;-73
2023/12/21 12:05:38;;;;;;;;;;;20.20;99.90;;;;;;4971825;28;19910;-70
2023/12/21 12:08:04;;;;;;;;;;;20.20;99.90;;;;;;4971198;28;19922;-69
2023/12/21 12:10:32;;;;;;;;;;;20.20;99.90;;;;;;4971780;28;19916;-71
2023/12/21 12:13:00;;;;;;;;;;;20.20;99.90;;;;;;4971585;28;19922;-73
2023/12/21 12:15:27;;;;;;;;;;;20.20;99.90;;;;;;4971433;28;19956;-70
2023/12/21 12:17:54;;;;;;;;;;;20.20;99.90;;;;;;4971610;28;19914;-68
2023/12/21 12:20:21;;;;;;;;;;;20.20;99.90;;;;;;4952754;28;20009;-70
2023/12/21 12:22:51;;;;;;;;;;;20.20;99.90;;;;;;4951864;28;19926;-71
2023/12/21 12:25:17;;;;;;;;;;;20.10;99.90;;;;;;4951059;28;20013;-68
2023/12/21 12:27:45;;;;;;;;;;;20.20;99.90;;;;;;4951822;28;19911;-69
2023/12/21 12:30:12;;;;;;;;;;;20.10;99.90;;;;;;4951704;28;19918;-72
2023/12/21 12:32:39;;;;;;;;;;;20.10;99.90;;;;;;4951839;28;19937;-67
2023/12/21 12:35:08;;;;;;;;;;;20.10;99.90;;;;;;4951926;28;19965;-71
2023/12/21 12:37:35;;;;;;;;;;;20.10;99.90;;;;;;4951970;28;19953;-69
2023/12/21 12:40:04;;;;;;;;;;;19.90;99.90;;;;;;4951996;28;19914;-69
2023/12/21 12:42:31;;;;;;;;;;;20.00;99.90;;;;;;4951832;28;19911;-69
2023/12/21 12:44:59;;;;;;;;;;;19.90;99.90;;;;;;4951984;28;19910;-71
2023/12/21 12:47:27;;;;;;;;;;;19.90;99.90;;;;;;4952026;28;20291;-70
2023/12/21 12:49:53;;;;;;;;;;;19.90;99.90;;;;;;4967242;28;20367;-72
2023/12/21 12:52:21;;;;;;;;;;;19.90;99.90;;;;;;4969100;28;19914;-69
2023/12/21 12:54:48;;;;;;;;;;;19.90;99.90;;;;;;4968813;28;19919;-69
2023/12/21 12:57:17;;;;;;;;;;;19.90;99.90;;;;;;4970784;28;19914;-69
2023/12/21 12:59:43;;;;;;;;;;;19.90;99.90;;;;;;4970797;28;19911;-69
2023/12/21 13:02:11;;;;;;;;;;;19.90;99.90;;;;;;4971383;28;19910;-73
2023/12/21 13:04:37;;;;;;;;;;;19.90;99.90;;;;;;4970530;28;20279;-70
2023/12/21 13:07:04;;;;;;;;;;;19.90;99.90;;;;;;4971041;28;20332;-68
2023/12/21 13:09:34;;;;;;;;;;;19.90;99.90;;;;;;4970795;28;19921;-71
2023/12/21 13:12:01;;;;;;;;;;;19.90;99.90;;;;;;4970354;28;19911;-71
2023/12/21 13:14:28;;;;;;;;;;;19.80;99.90;;;;;;4970307;28;19918;-70
2023/12/21 13:16:54;;;;;;;;;;;19.80;99.90;;;;;;4970822;28;19922;-74
2023/12/21 13:19:22;;;;;;;;;;;19.70;99.90;;;;;;4971182;28;19910;-73
2023/12/21 13:21:49;;;;;;;;;;;19.70;99.90;;;;;;4970680;28;19954;-74
2023/12/21 13:24:17;;;;;;;;;;;19.60;99.90;;;;;;4970841;28;19917;-71
2023/12/21 13:26:43;;;;;;;;;;;19.60;99.90;;;;;;4970743;28;19911;-71
2023/12/21 13:29:11;;;;;;;;;;;19.50;99.90;;;;;;4972609;28;19922;-72
2023/12/21 13:31:38;;;;;;;;;;;19.40;99.90;;;;;;4973643;28;19921;-69
2023/12/21 13:34:05;;;;;;;;;;;19.50;99.90;;;;;;4974169;28;19969;-70
2023/12/21 13:36:32;;;;;;;;;;;19.50;99.90;;;;;;4974277;28;19917;-71
2023/12/21 13:38:59;;;;;;;;;;;19.50;99.90;;;;;;4973874;28;19917;-70
2023/12/21 13:41:25;;;;;;;;;;;19.40;99.90;;;;;;4973413;28;19914;-74
2023/12/21 13:43:52;;;;;;;;;;;19.50;99.90;;;;;;4973962;28;19914;-71
2023/12/21 13:46:21;;;;;;;;;;;19.40;99.90;;;;;;4973670;28;20355;-72
2023/12/21 13:48:48;;;;;;;;;;;19.50;99.90;;;;;;4972380;28;20260;-71
2023/12/21 13:51:14;;;;;;;;;;;19.50;99.90;;;;;;4973391;28;20071;-74
2023/12/21 13:53:41;;;;;;;;;;;19.50;99.90;;;;;;4973665;28;19918;-70
2023/12/21 13:56:09;;;;;;;;;;;19.60;99.90;;;;;;4973522;28;20001;-69
2023/12/21 13:58:36;;;;;;;;;;;19.50;99.90;;;;;;4973567;28;19910;-69
2023/12/21 14:01:03;;;;;;;;;;;19.40;99.90;;;;;;4973548;28;20377;-70
2023/12/21 14:03:30;;;;;;;;;;;19.50;99.90;;;;;;4973359;28;19997;-69
2023/12/21 14:05:57;;;;;;;;;;;19.50;99.90;;;;;;4973554;28;19910;-73
2023/12/21 14:08:23;;;;;;;;;;;19.50;99.90;;;;;;4973519;28;19910;-71
2023/12/21 14:10:50;;;;;;;;;;;19.40;99.90;;;;;;4973313;28;19910;-71
2023/12/21 14:13:16;;;;;;;;;;;19.50;99.90;;;;;;4972790;28;19972;-71
2023/12/21 14:15:46;;;;;;;;;;;19.40;99.90;;;;;;4972864;28;19968;-69
2023/12/21 14:18:13;;;;;;;;;;;19.40;99.90;;;;;;4973266;28;19941;-75